Time;durP1;ratioP1;P1;durP2;ratioP2;P2;SDS_P1;SDS_P2;PMS_P1;PMS_P2;Temp;Humidity;BMP_temperature;BMP_pressure;BME280_temperature;BME280_humidity;BME280_pressure;Samples;Min_cycle;Max_cycle;Signal;HPM_P1;HPM_P2
2022/06/24 00:01:32;;;;;;;18.98;5.13;;;22.20;1.00;;;;;;4935887;29;20102;-79
2022/06/24 00:03:58;;;;;;;13.65;4.45;;;22.30;1.00;;;;;;4936194;29;20068;-80
2022/06/24 00:06:29;;;;;;;17.33;5.03;;;22.40;1.00;;;;;;4935503;29;20031;-79
2022/06/24 00:09:00;;;;;;;17.98;5.20;;;22.40;1.00;;;;;;4935976;29;20043;-79
2022/06/24 00:11:30;;;;;;;19.08;5.15;;;22.40;1.00;;;;;;4935865;29;20508;-79
2022/06/24 00:14:08;;;;;;;14.35;4.57;;;22.30;1.00;;;;;;4935473;29;20035;-79
2022/06/24 00:17:09;;;;;;;13.23;4.50;;;22.40;1.00;;;;;;4935079;29;20020;-79
2022/06/24 00:19:57;;;;;;;17.38;4.97;;;22.40;1.00;;;;;;4914512;29;20043;-79
2022/06/24 00:22:29;;;;;;;13.38;4.78;;;22.50;1.00;;;;;;4913973;29;20040;-79
2022/06/24 00:25:17;;;;;;;17.10;4.88;;;22.50;1.00;;;;;;4914755;29;20071;-79
2022/06/24 00:28:04;;;;;;;16.75;4.97;;;22.50;1.00;;;;;;4914771;29;20040;-79
2022/06/24 00:30:47;;;;;;;15.38;4.53;;;22.60;1.00;;;;;;4909699;29;20048;-79
2022/06/24 00:33:27;;;;;;;17.33;4.93;;;22.50;1.00;;;;;;4909819;29;20036;-80
2022/06/24 00:35:59;;;;;;;15.85;5.13;;;22.40;1.00;;;;;;4909364;29;20043;-79
2022/06/24 00:38:35;;;;;;;16.02;4.80;;;22.30;1.00;;;;;;4910231;29;20032;-79
2022/06/24 00:41:07;;;;;;;16.63;4.28;;;22.20;1.00;;;;;;4911141;29;20048;-79
2022/06/24 00:43:42;;;;;;;11.10;4.30;;;22.30;1.00;;;;;;4913743;29;20055;-79
2022/06/24 00:46:22;;;;;;;14.48;4.55;;;22.20;1.00;;;;;;4895713;29;20032;-79
2022/06/24 00:48:56;;;;;;;13.73;4.38;;;22.20;1.00;;;;;;4912659;29;20040;-79
2022/06/24 00:51:30;;;;;;;13.23;4.30;;;22.00;1.00;;;;;;4909626;29;20115;-79
2022/06/24 00:53:56;;;;;;;16.45;4.57;;;22.20;1.00;;;;;;4927748;29;20040;-79
2022/06/24 00:56:25;;;;;;;12.18;4.03;;;22.20;1.00;;;;;;4934647;29;20034;-79
2022/06/24 00:59:01;;;;;;;16.33;3.90;;;22.20;1.00;;;;;;4934982;29;20032;-79
2022/06/24 01:01:35;;;;;;;11.10;4.18;;;22.20;1.00;;;;;;4934873;29;20032;-80
2022/06/24 01:04:05;;;;;;;14.88;4.63;;;22.20;1.00;;;;;;4935088;29;20032;-79
2022/06/24 01:06:32;;;;;;;13.20;4.65;;;22.20;1.00;;;;;;4934309;29;20039;-80
2022/06/24 01:09:00;;;;;;;19.25;4.85;;;22.20;1.00;;;;;;4934459;29;20027;-79
2022/06/24 01:11:29;;;;;;;13.50;4.57;;;22.10;1.00;;;;;;4934645;29;20028;-79
2022/06/24 01:13:56;;;;;;;14.35;4.57;;;21.90;1.00;;;;;;4934615;29;20032;-79
2022/06/24 01:16:24;;;;;;;15.23;4.50;;;21.90;1.00;;;;;;4934434;29;20027;-78
2022/06/24 01:18:54;;;;;;;15.13;4.38;;;21.70;1.00;;;;;;4931839;29;20119;-79
2022/06/24 01:21:36;;;;;;;15.32;4.68;;;21.70;1.00;;;;;;4934895;29;20058;-79
2022/06/24 01:24:12;;;;;;;12.02;4.32;;;21.70;1.00;;;;;;4934206;29;20043;-79
2022/06/24 01:26:45;;;;;;;15.48;4.30;;;21.60;1.00;;;;;;4934431;29;20044;-80
2022/06/24 01:29:12;;;;;;;16.25;4.53;;;21.40;1.00;;;;;;4934464;29;20024;-78
2022/06/24 01:31:40;;;;;;;12.43;4.18;;;21.50;1.00;;;;;;4919883;29;20485;-79
2022/06/24 01:34:07;;;;;;;10.90;4.68;;;21.50;1.00;;;;;;4930726;29;20032;-79
2022/06/24 01:36:33;;;;;;;12.82;4.80;;;21.40;1.00;;;;;;4934550;29;20131;-80
2022/06/24 01:39:04;;;;;;;15.00;4.22;;;21.40;1.00;;;;;;4940289;28;20125;-79
2022/06/24 01:41:36;;;;;;;13.43;5.32;;;21.40;1.00;;;;;;4972384;28;20041;-79
2022/06/24 01:44:01;;;;;;;18.08;5.05;;;21.30;1.00;;;;;;4972482;28;20058;-79
2022/06/24 01:46:34;;;;;;;16.33;4.50;;;21.30;1.00;;;;;;4972666;28;20039;-80
2022/06/24 01:49:01;;;;;;;15.25;5.38;;;21.40;1.00;;;;;;4973246;28;20079;-79
2022/06/24 01:51:28;;;;;;;11.95;4.82;;;21.40;1.00;;;;;;4977901;28;20054;-79
2022/06/24 01:53:54;;;;;;;14.68;4.78;;;21.30;1.00;;;;;;4978768;28;20030;-78
2022/06/24 01:56:20;;;;;;;13.70;4.60;;;21.40;1.00;;;;;;4978804;28;20037;-78
2022/06/24 01:58:46;;;;;;;11.23;4.35;;;21.40;1.00;;;;;;4978991;28;20092;-79
2022/06/24 02:01:12;;;;;;;18.45;4.93;;;21.40;1.00;;;;;;4979092;28;20547;-80
2022/06/24 02:03:38;;;;;;;15.60;5.10;;;21.30;1.00;;;;;;4978884;28;20030;-80
2022/06/24 02:06:07;;;;;;;13.07;5.00;;;21.20;1.00;;;;;;4979084;28;20114;-80
2022/06/24 02:08:33;;;;;;;16.20;5.35;;;21.20;1.00;;;;;;4978887;28;20023;-78
2022/06/24 02:13:46;;;;;;;13.63;5.00;;;21.10;1.00;;;;;;4964561;28;20119;-79
2022/06/24 02:16:12;;;;;;;14.55;5.47;;;21.20;1.00;;;;;;4979021;28;20161;-79
2022/06/24 02:18:39;;;;;;;16.48;5.30;;;21.20;1.00;;;;;;4978761;28;20150;-80
2022/06/24 02:21:05;;;;;;;14.60;5.32;;;21.30;1.00;;;;;;4978684;28;20041;-79
2022/06/24 02:23:31;;;;;;;16.95;5.00;;;21.20;1.00;;;;;;4978900;28;20023;-80
2022/06/24 02:25:57;;;;;;;16.58;4.72;;;21.30;1.00;;;;;;4978549;28;20495;-79
2022/06/24 02:28:23;;;;;;;18.05;4.85;;;21.20;1.00;;;;;;4978831;28;20544;-80
2022/06/24 02:30:53;;;;;;;15.77;5.22;;;21.30;1.00;;;;;;4977615;28;20049;-80
2022/06/24 02:33:19;;;;;;;17.30;5.13;;;21.20;1.00;;;;;;4978238;28;20057;-80
2022/06/24 02:35:44;;;;;;;13.13;4.97;;;21.20;1.00;;;;;;4978593;28;20054;-80
2022/06/24 02:38:10;;;;;;;17.17;5.70;;;21.30;1.00;;;;;;4960934;28;20125;-80
2022/06/24 02:40:45;;;;;;;14.68;4.90;;;21.30;1.00;;;;;;4978588;28;20054;-80
2022/06/24 02:43:16;;;;;;;16.27;4.75;;;21.40;1.00;;;;;;4975983;28;20030;-80
2022/06/24 02:45:43;;;;;;;18.30;5.30;;;21.40;1.00;;;;;;4978058;28;20035;-79
2022/06/24 02:48:09;;;;;;;17.98;4.80;;;21.40;1.00;;;;;;4978009;28;20039;-79
2022/06/24 02:50:44;;;;;;;17.75;5.38;;;21.40;1.00;;;;;;4978357;28;20365;-79
2022/06/24 02:53:11;;;;;;;13.68;5.35;;;21.40;1.00;;;;;;4978424;28;20027;-79
2022/06/24 02:55:37;;;;;;;15.82;5.15;;;21.40;1.00;;;;;;4963511;28;20073;-80
2022/06/24 02:58:04;;;;;;;16.05;5.20;;;21.50;1.00;;;;;;4978853;28;20042;-80
2022/06/24 03:00:30;;;;;;;15.05;4.75;;;21.50;1.00;;;;;;4977951;28;20034;-80
2022/06/24 03:02:56;;;;;;;13.52;4.75;;;21.40;1.00;;;;;;4974186;28;20027;-79
2022/06/24 03:05:22;;;;;;;16.08;5.00;;;21.40;1.00;;;;;;4975434;28;20046;-80
2022/06/24 03:07:48;;;;;;;14.45;5.53;;;21.30;1.00;;;;;;4975249;28;20027;-80
2022/06/24 03:10:15;;;;;;;14.48;4.93;;;21.40;1.00;;;;;;4975439;28;20029;-79
2022/06/24 03:12:40;;;;;;;16.05;5.38;;;21.40;1.00;;;;;;4974646;28;20027;-79
2022/06/24 03:15:07;;;;;;;18.52;5.40;;;21.30;1.00;;;;;;4974832;28;20096;-80
2022/06/24 03:17:32;;;;;;;18.02;5.05;;;21.30;1.00;;;;;;4975190;28;20023;-80
2022/06/24 03:19:58;;;;;;;14.68;4.95;;;21.30;1.00;;;;;;4975325;28;20439;-80
2022/06/24 03:22:23;;;;;;;16.23;5.13;;;21.30;1.00;;;;;;4975186;28;20023;-80
2022/06/24 03:24:49;;;;;;;15.52;4.97;;;21.30;1.00;;;;;;4975436;28;20145;-80
2022/06/24 03:27:14;;;;;;;15.18;5.10;;;21.30;1.00;;;;;;4974818;28;20027;-80
2022/06/24 03:29:40;;;;;;;13.45;4.90;;;21.30;1.00;;;;;;4974848;28;20054;-80
2022/06/24 03:32:06;;;;;;;16.60;5.35;;;21.30;1.00;;;;;;4974807;28;20039;-80
2022/06/24 03:34:31;;;;;;;17.58;5.18;;;21.30;1.00;;;;;;4974699;28;20047;-80
2022/06/24 03:36:57;;;;;;;16.70;5.45;;;21.30;1.00;;;;;;4975576;28;20381;-80
2022/06/24 03:39:23;;;;;;;20.42;5.47;;;21.30;1.00;;;;;;4974412;28;20090;-80
2022/06/24 03:41:48;;;;;;;17.08;4.78;;;21.20;1.00;;;;;;4974717;28;20101;-80
2022/06/24 03:44:14;;;;;;;17.23;5.18;;;21.30;1.00;;;;;;4973889;28;20035;-80
2022/06/24 03:46:39;;;;;;;16.88;5.70;;;21.30;1.00;;;;;;4974518;28;20439;-80
2022/06/24 03:49:05;;;;;;;11.20;5.05;;;21.30;1.00;;;;;;4975220;28;20550;-80
2022/06/24 03:51:30;;;;;;;19.17;5.15;;;21.30;1.00;;;;;;4974185;28;20082;-80
2022/06/24 03:53:56;;;;;;;15.77;5.25;;;21.40;1.00;;;;;;4974140;28;20031;-80
2022/06/24 03:56:22;;;;;;;20.27;5.32;;;21.40;1.00;;;;;;4974372;28;20141;-80
2022/06/24 03:58:47;;;;;;;16.33;5.43;;;21.40;1.00;;;;;;4973951;28;20019;-80
2022/06/24 04:01:13;;;;;;;14.88;5.72;;;21.30;1.00;;;;;;4974889;28;20166;-80
2022/06/24 04:03:38;;;;;;;16.95;5.35;;;21.30;1.00;;;;;;4974533;28;20031;-80
2022/06/24 04:06:04;;;;;;;17.20;5.53;;;21.30;1.00;;;;;;4973920;28;20039;-80
2022/06/24 04:08:30;;;;;;;22.95;7.13;;;21.20;1.00;;;;;;4974046;28;20030;-80
2022/06/24 04:10:55;;;;;;;23.60;7.03;;;21.20;1.00;;;;;;4974720;28;20050;-79
2022/06/24 04:13:21;;;;;;;22.63;6.32;;;21.10;1.00;;;;;;4973478;28;20133;-79
2022/06/24 04:15:49;;;;;;;20.10;5.85;;;21.10;1.00;;;;;;4975207;28;20109;-79
2022/06/24 04:18:16;;;;;;;14.30;6.88;;;21.00;1.00;;;;;;4974074;28;20023;-79
2022/06/24 04:20:42;;;;;;;16.52;6.43;;;20.90;1.00;;;;;;4973908;28;20022;-79
2022/06/24 04:23:07;;;;;;;15.75;5.30;;;20.90;1.00;;;;;;4973988;28;20117;-79
2022/06/24 04:25:33;;;;;;;16.88;4.95;;;20.90;1.00;;;;;;4956461;28;20121;-79
2022/06/24 04:27:59;;;;;;;12.60;5.50;;;20.90;1.00;;;;;;4974256;28;20039;-80
2022/06/24 04:30:25;;;;;;;11.20;4.95;;;20.90;1.00;;;;;;4973705;28;20042;-79
2022/06/24 04:32:51;;;;;;;10.80;5.10;;;20.80;1.00;;;;;;4973721;28;20109;-79
2022/06/24 04:35:16;;;;;;;15.07;5.53;;;20.80;1.00;;;;;;4973257;28;20121;-79
2022/06/24 04:37:42;;;;;;;17.05;6.28;;;20.80;1.00;;;;;;4973826;28;20415;-79
2022/06/24 04:40:12;;;;;;;10.80;4.97;;;20.80;1.00;;;;;;4973668;28;20070;-79
2022/06/24 04:42:38;;;;;;;9.68;5.00;;;20.70;1.00;;;;;;4973547;28;20032;-80
2022/06/24 04:45:05;;;;;;;10.93;4.78;;;20.70;1.00;;;;;;4955772;28;20050;-80
2022/06/24 04:47:31;;;;;;;15.20;4.95;;;20.80;1.00;;;;;;4973511;28;20038;-79
2022/06/24 04:49:56;;;;;;;11.88;5.10;;;20.70;1.00;;;;;;4973041;28;20070;-80
2022/06/24 04:52:22;;;;;;;13.88;5.00;;;20.70;1.00;;;;;;4973424;28;20034;-80
2022/06/24 04:54:48;;;;;;;12.55;5.35;;;20.60;1.00;;;;;;4974286;28;20090;-79
2022/06/24 04:57:14;;;;;;;9.93;4.95;;;20.50;1.00;;;;;;4972808;28;20034;-79
2022/06/24 04:59:39;;;;;;;13.80;3.85;;;20.60;1.00;;;;;;4973390;28;20027;-79
2022/06/24 05:02:05;;;;;;;7.97;3.67;;;20.60;1.00;;;;;;4973088;28;20114;-80
2022/06/24 05:04:31;;;;;;;13.00;4.18;;;20.60;1.00;;;;;;4972748;28;20042;-80
2022/06/24 05:06:56;;;;;;;9.95;3.97;;;20.60;1.00;;;;;;4974306;28;20047;-80
2022/06/24 05:09:22;;;;;;;12.13;4.20;;;20.40;1.00;;;;;;4972985;28;20027;-79
2022/06/24 05:11:50;;;;;;;8.48;3.10;;;20.50;1.00;;;;;;4972536;28;20451;-80
2022/06/24 05:14:16;;;;;;;9.13;3.13;;;20.50;1.00;;;;;;4972900;28;20050;-80
2022/06/24 05:16:42;;;;;;;7.70;3.47;;;20.50;1.00;;;;;;4973100;28;20026;-79
2022/06/24 05:19:09;;;;;;;8.40;3.08;;;20.50;1.00;;;;;;4973599;28;20476;-79
2022/06/24 05:21:35;;;;;;;11.25;3.08;;;20.60;1.00;;;;;;4973777;28;20061;-79
2022/06/24 05:24:00;;;;;;;9.18;3.13;;;20.70;1.00;;;;;;4972923;28;20484;-79
2022/06/24 05:26:27;;;;;;;8.25;3.10;;;20.60;1.00;;;;;;4971987;28;20038;-80
2022/06/24 05:28:52;;;;;;;6.40;2.30;;;20.70;1.00;;;;;;4972899;28;20508;-79
2022/06/24 05:31:18;;;;;;;4.70;2.80;;;20.60;1.00;;;;;;4973130;28;20058;-79
2022/06/24 05:33:43;;;;;;;9.68;2.88;;;20.70;1.00;;;;;;4973154;28;20026;-79
2022/06/24 05:36:09;;;;;;;6.28;2.90;;;20.80;1.00;;;;;;4972713;28;20038;-80
2022/06/24 05:38:35;;;;;;;4.15;2.45;;;20.60;1.00;;;;;;4972414;28;20483;-79
2022/06/24 05:41:03;;;;;;;4.10;2.10;;;20.60;1.00;;;;;;4972494;28;20039;-80
2022/06/24 05:43:28;;;;;;;6.15;2.40;;;20.70;1.00;;;;;;4972683;28;20035;-78
2022/06/24 05:45:54;;;;;;;6.95;3.08;;;20.70;1.00;;;;;;4973291;28;20085;-79
2022/06/24 05:48:20;;;;;;;7.88;2.70;;;20.70;1.00;;;;;;4972305;28;20030;-79
2022/06/24 05:50:45;;;;;;;4.22;2.53;;;20.90;1.00;;;;;;4972387;28;20023;-79
2022/06/24 05:55:58;;;;;;;6.85;3.22;;;21.10;1.00;;;;;;4972405;28;20021;-78
2022/06/24 05:58:25;;;;;;;5.93;3.13;;;21.00;1.00;;;;;;4972893;28;20062;-78
2022/06/24 06:00:51;;;;;;;6.47;3.00;;;21.00;1.00;;;;;;4972972;28;20090;-79
2022/06/24 06:03:17;;;;;;;4.90;3.03;;;21.00;1.00;;;;;;4972046;28;20506;-79
2022/06/24 06:05:42;;;;;;;7.13;3.25;;;20.80;1.00;;;;;;4972504;28;20043;-77
2022/06/24 06:08:08;;;;;;;7.72;3.45;;;20.60;1.00;;;;;;4955036;28;20038;-77
2022/06/24 06:10:37;;;;;;;8.18;3.80;;;20.70;1.00;;;;;;4971973;28;20794;-77
2022/06/24 06:13:03;;;;;;;8.80;3.35;;;20.90;1.00;;;;;;4973263;28;20506;-79
2022/06/24 06:15:30;;;;;;;11.57;3.95;;;21.00;1.00;;;;;;4972047;28;20031;-78
2022/06/24 06:17:55;;;;;;;9.45;3.05;;;20.90;1.00;;;;;;4972050;28;20026;-77
2022/06/24 06:20:21;;;;;;;8.45;3.50;;;20.80;1.00;;;;;;4972290;28;20389;-79
2022/06/24 06:22:46;;;;;;;5.65;3.17;;;20.80;1.00;;;;;;4972589;28;20030;-77
2022/06/24 06:25:15;;;;;;;6.63;3.30;;;20.80;1.00;;;;;;4971983;28;20117;-78
2022/06/24 06:27:40;;;;;;;10.15;3.90;;;20.90;1.00;;;;;;4971830;28;20046;-79
2022/06/24 06:30:07;;;;;;;10.70;3.70;;;20.90;1.00;;;;;;4971923;28;20503;-77
2022/06/24 06:32:33;;;;;;;4.25;3.20;;;20.80;1.00;;;;;;4971927;28;20095;-78
2022/06/24 06:34:59;;;;;;;8.93;3.58;;;20.80;1.00;;;;;;4972243;28;20032;-79
2022/06/24 06:37:24;;;;;;;10.20;4.40;;;20.70;1.00;;;;;;4974295;28;20333;-79
2022/06/24 06:39:50;;;;;;;11.65;4.05;;;20.70;1.00;;;;;;4976538;28;20549;-79
2022/06/24 06:42:16;;;;;;;7.65;3.42;;;20.80;1.00;;;;;;4976898;28;20030;-79
2022/06/24 06:44:41;;;;;;;7.28;3.72;;;20.80;1.00;;;;;;4975533;28;20034;-79
2022/06/24 06:47:07;;;;;;;11.25;5.05;;;20.80;1.00;;;;;;4976129;28;20443;-79
2022/06/24 06:49:33;;;;;;;15.70;5.55;;;20.70;1.00;;;;;;4975415;28;20058;-79
2022/06/24 06:52:02;;;;;;;13.02;5.50;;;20.50;1.00;;;;;;4976267;28;20066;-79
2022/06/24 06:54:29;;;;;;;13.00;5.10;;;20.20;1.00;;;;;;4974896;28;20037;-79
2022/06/24 06:56:55;;;;;;;15.65;5.75;;;20.10;1.00;;;;;;4975288;28;20027;-79
2022/06/24 06:59:21;;;;;;;14.77;5.43;;;20.20;1.00;;;;;;4975656;28;20118;-79
2022/06/24 07:01:47;;;;;;;15.82;5.70;;;20.10;1.00;;;;;;4975065;28;20199;-78
2022/06/24 07:04:12;;;;;;;17.73;5.78;;;20.10;1.00;;;;;;4975225;28;20022;-78
2022/06/24 07:06:38;;;;;;;12.18;5.28;;;19.90;1.00;;;;;;4975832;28;20038;-79
2022/06/24 07:09:03;;;;;;;8.98;3.90;;;20.00;1.00;;;;;;4975196;28;20065;-79
2022/06/24 07:11:29;;;;;;;11.15;5.90;;;20.00;1.00;;;;;;4975148;28;20130;-79
2022/06/24 07:13:55;;;;;;;12.27;5.35;;;20.10;1.00;;;;;;4975348;28;20098;-79
2022/06/24 07:16:21;;;;;;;11.43;4.90;;;20.00;1.00;;;;;;4975432;28;20102;-79
2022/06/24 07:18:46;;;;;;;10.65;5.25;;;19.50;1.00;;;;;;4975713;28;20023;-78
2022/06/24 07:21:15;;;;;;;17.38;6.75;;;19.30;1.00;;;;;;4974733;28;20042;-78
2022/06/24 07:23:41;;;;;;;14.90;5.15;;;19.30;1.00;;;;;;4974166;28;20509;-78
2022/06/24 07:26:07;;;;;;;10.35;5.05;;;19.40;1.00;;;;;;4974551;28;20042;-78
2022/06/24 07:28:37;;;;;;;11.27;5.47;;;19.50;1.00;;;;;;4975062;28;20106;-78
2022/06/24 07:31:16;;;;;;;9.70;4.70;;;19.20;1.00;;;;;;4975401;28;20023;-78
2022/06/24 07:33:43;;;;;;;13.13;5.35;;;19.10;1.00;;;;;;4974431;28;20118;-78
2022/06/24 07:36:08;;;;;;;11.63;5.03;;;19.20;1.00;;;;;;4974220;28;20034;-78
2022/06/24 07:38:34;;;;;;;9.40;4.68;;;19.20;1.00;;;;;;4974582;28;20108;-78
2022/06/24 07:40:59;;;;;;;8.05;4.45;;;19.10;1.00;;;;;;4975030;28;20361;-78
2022/06/24 07:43:25;;;;;;;8.93;4.20;;;19.10;1.00;;;;;;4974702;28;20484;-78
2022/06/24 07:45:51;;;;;;;7.90;3.95;;;19.10;1.00;;;;;;4975121;28;20063;-78
2022/06/24 07:48:17;;;;;;;9.65;3.88;;;19.20;1.00;;;;;;4973904;28;20431;-78
2022/06/24 07:50:43;;;;;;;7.63;3.78;;;18.90;1.00;;;;;;4973989;28;20030;-78
2022/06/24 07:53:09;;;;;;;5.90;3.00;;;18.80;1.00;;;;;;4974391;28;20027;-78
2022/06/24 07:58:18;;;;;;;6.88;3.22;;;19.00;1.00;;;;;;4973086;28;20030;-78
2022/06/24 08:00:44;;;;;;;7.65;2.45;;;19.10;1.00;;;;;;4975214;28;20027;-78
2022/06/24 08:03:10;;;;;;;9.60;4.32;;;19.10;1.00;;;;;;4974409;28;20060;-78
2022/06/24 08:05:35;;;;;;;7.65;3.45;;;19.10;1.00;;;;;;4974175;28;20858;-78
2022/06/24 08:08:01;;;;;;;6.32;3.38;;;18.80;1.00;;;;;;4974368;28;20106;-78
2022/06/24 08:10:27;;;;;;;9.68;3.85;;;18.80;1.00;;;;;;4974267;28;20468;-78
2022/06/24 08:12:52;;;;;;;6.45;3.25;;;19.00;1.00;;;;;;4974597;28;20484;-78
2022/06/24 08:15:18;;;;;;;4.93;2.90;;;18.90;1.00;;;;;;4973981;28;20086;-78
2022/06/24 08:17:44;;;;;;;8.95;3.08;;;19.00;1.00;;;;;;4974558;28;20033;-78
2022/06/24 08:20:10;;;;;;;7.78;3.03;;;18.90;1.00;;;;;;4974015;28;20121;-78
2022/06/24 08:22:36;;;;;;;6.95;3.30;;;19.00;1.00;;;;;;4974529;28;20101;-78
2022/06/24 08:25:02;;;;;;;6.80;2.85;;;18.90;1.00;;;;;;4974845;28;20087;-78
2022/06/24 08:27:27;;;;;;;4.78;2.72;;;19.00;1.00;;;;;;4974141;28;20090;-77
2022/06/24 08:29:53;;;;;;;8.02;3.03;;;19.20;1.00;;;;;;4973552;28;20480;-78
2022/06/24 08:32:19;;;;;;;4.25;2.25;;;19.10;1.00;;;;;;4973954;28;20475;-78
2022/06/24 08:34:45;;;;;;;6.07;2.78;;;19.10;1.00;;;;;;4973449;28;20118;-78
2022/06/24 08:37:10;;;;;;;5.45;2.92;;;19.30;1.00;;;;;;4974496;28;20483;-78
2022/06/24 08:39:36;;;;;;;7.40;3.50;;;19.10;1.00;;;;;;4973523;28;20051;-78
2022/06/24 08:42:03;;;;;;;7.70;2.70;;;18.90;1.00;;;;;;4974114;28;20518;-78
2022/06/24 08:44:28;;;;;;;5.20;2.15;;;18.90;1.00;;;;;;4973704;28;20034;-78
2022/06/24 08:46:54;;;;;;;4.55;2.45;;;18.70;1.00;;;;;;4973748;28;20042;-78
2022/06/24 08:49:20;;;;;;;4.53;2.55;;;18.80;1.00;;;;;;4973129;28;20065;-78
2022/06/24 08:51:49;;;;;;;6.68;2.25;;;18.80;1.00;;;;;;4973980;28;20027;-78
2022/06/24 08:54:18;;;;;;;6.20;2.90;;;18.80;1.00;;;;;;4973101;28;20049;-78
2022/06/24 08:56:44;;;;;;;5.68;2.78;;;18.80;1.00;;;;;;4973371;28;20031;-78
2022/06/24 08:59:10;;;;;;;4.97;2.40;;;18.80;1.00;;;;;;4972886;28;20046;-78
2022/06/24 09:01:42;;;;;;;4.80;2.22;;;18.80;1.00;;;;;;4957508;28;20031;-79
2022/06/24 09:04:10;;;;;;;7.03;2.53;;;19.00;1.00;;;;;;4969781;28;20030;-78
2022/06/24 09:06:40;;;;;;;4.10;2.05;;;19.20;1.00;;;;;;4972955;28;20101;-78
2022/06/24 09:09:06;;;;;;;3.85;1.92;;;19.30;1.00;;;;;;4973273;28;20035;-78
2022/06/24 09:11:37;;;;;;;4.22;1.92;;;19.40;1.00;;;;;;4973355;28;20512;-78
2022/06/24 09:14:03;;;;;;;3.20;1.80;;;19.50;1.00;;;;;;4973140;28;20407;-78
2022/06/24 09:16:29;;;;;;;2.45;1.80;;;19.70;1.00;;;;;;4973206;28;20043;-78
2022/06/24 09:19:00;;;;;;;2.00;1.58;;;20.00;1.00;;;;;;4973598;28;20105;-78
2022/06/24 09:21:29;;;;;;;1.45;1.17;;;20.30;1.00;;;;;;4972856;28;20496;-78
2022/06/24 09:23:57;;;;;;;1.70;0.98;;;20.30;1.00;;;;;;4972436;28;20122;-78
2022/06/24 09:26:37;;;;;;;1.50;1.20;;;20.30;1.00;;;;;;4972752;28;20039;-78
2022/06/24 09:29:07;;;;;;;1.92;1.17;;;20.40;1.00;;;;;;4972641;28;20523;-78
2022/06/24 09:31:34;;;;;;;3.08;1.45;;;20.70;1.00;;;;;;4973093;28;20073;-78
2022/06/24 09:34:11;;;;;;;2.88;1.40;;;20.50;1.00;;;;;;4972949;28;20085;-77
2022/06/24 09:36:39;;;;;;;1.55;1.27;;;20.30;1.00;;;;;;4972597;28;20039;-78
2022/06/24 09:39:11;;;;;;;2.08;1.30;;;20.40;1.00;;;;;;4972150;28;20054;-78
2022/06/24 09:41:45;;;;;;;1.40;1.13;;;20.10;1.00;;;;;;4972464;28;20027;-78
2022/06/24 09:44:11;;;;;;;1.92;1.30;;;20.20;1.00;;;;;;4972435;28;20030;-78
2022/06/24 09:46:37;;;;;;;2.72;1.20;;;20.20;1.00;;;;;;4956877;28;20526;-77
2022/06/24 09:49:05;;;;;;;2.40;1.48;;;20.50;1.00;;;;;;4973497;28;20015;-78
2022/06/24 09:51:31;;;;;;;2.22;1.40;;;21.10;1.00;;;;;;4972259;28;20085;-78
2022/06/24 09:53:57;;;;;;;2.63;1.40;;;21.60;1.00;;;;;;4972205;28;20027;-78
2022/06/24 09:56:23;;;;;;;2.90;1.50;;;21.90;1.00;;;;;;4972426;28;20447;-78
2022/06/24 10:01:37;;;;;;;2.55;1.60;;;21.70;1.00;;;;;;4972271;28;20510;-78
2022/06/24 10:04:09;;;;;;;2.15;1.80;;;21.60;1.00;;;;;;4972787;28;20500;-78
2022/06/24 10:06:36;;;;;;;3.22;1.70;;;21.50;1.00;;;;;;4972373;28;20077;-78
2022/06/24 10:09:06;;;;;;;3.83;1.77;;;21.30;1.00;;;;;;4972042;28;20026;-80
2022/06/24 10:11:34;;;;;;;4.20;1.90;;;21.10;1.00;;;;;;4973354;28;20559;-80
2022/06/24 10:14:01;;;;;;;4.80;1.70;;;21.00;1.00;;;;;;4976214;28;20027;-77
2022/06/24 10:16:27;;;;;;;2.55;1.63;;;21.20;1.00;;;;;;4976061;28;20555;-77
2022/06/24 10:18:55;;;;;;;2.53;1.77;;;21.30;1.00;;;;;;4976849;28;20102;-78
2022/06/24 10:21:21;;;;;;;2.55;1.50;;;21.60;1.00;;;;;;4975840;28;20034;-78
2022/06/24 10:23:47;;;;;;;4.68;1.80;;;22.00;1.00;;;;;;4976223;28;20026;-78
2022/06/24 10:26:14;;;;;;;2.30;1.52;;;21.90;1.00;;;;;;4975687;28;20392;-78
2022/06/24 10:29:03;;;;;;;2.63;2.00;;;22.10;1.00;;;;;;4975833;28;20027;-79
2022/06/24 10:31:44;;;;;;;4.03;1.10;;;22.10;1.00;;;;;;4975674;28;20062;-78
2022/06/24 10:34:13;;;;;;;1.50;1.40;;;22.10;1.00;;;;;;4972521;28;20027;-77
2022/06/24 10:36:39;;;;;;;5.75;1.60;;;22.40;1.00;;;;;;4975776;28;20463;-78
2022/06/24 10:39:26;;;;;;;2.97;1.40;;;22.40;1.00;;;;;;4975342;28;20055;-78
2022/06/24 10:42:10;;;;;;;1.88;1.42;;;22.80;1.00;;;;;;4975307;28;20423;-78
2022/06/24 10:44:37;;;;;;;2.53;1.42;;;22.80;1.00;;;;;;4975043;28;20410;-79
2022/06/24 10:47:12;;;;;;;1.65;1.40;;;23.20;1.00;;;;;;4975499;28;20396;-78
2022/06/24 10:50:14;;;;;;;3.13;1.73;;;23.20;1.00;;;;;;4960791;28;20496;-78
2022/06/24 10:52:47;;;;;;;1.50;1.13;;;22.90;1.00;;;;;;4937900;28;20127;-78
2022/06/24 10:55:28;;;;;;;2.95;1.00;;;23.00;1.00;;;;;;4975594;28;20042;-78
2022/06/24 10:58:05;;;;;;;0.90;0.90;;;22.90;1.00;;;;;;4974462;28;20065;-78
2022/06/24 11:00:36;;;;;;;3.35;1.30;;;23.30;1.00;;;;;;4974808;28;20030;-78
2022/06/24 11:03:05;;;;;;;1.40;1.13;;;23.50;1.00;;;;;;4975070;28;20031;-78
2022/06/24 11:05:42;;;;;;;3.47;1.33;;;24.10;1.00;;;;;;4975288;28;20508;-78
2022/06/24 11:08:19;;;;;;;2.13;1.40;;;24.40;1.00;;;;;;4975141;28;20510;-78
2022/06/24 11:10:47;;;;;;;3.15;1.33;;;24.60;1.00;;;;;;4960926;28;20022;-78
2022/06/24 11:13:13;;;;;;;3.03;1.40;;;24.60;1.00;;;;;;4975720;28;20511;-80
2022/06/24 11:16:03;;;;;;;2.08;1.27;;;24.20;1.00;;;;;;4975213;28;20035;-78
2022/06/24 11:18:34;;;;;;;1.73;1.10;;;23.80;1.00;;;;;;4974324;28;20039;-81
2022/06/24 11:21:02;;;;;;;3.17;1.50;;;23.50;1.00;;;;;;4974891;28;20022;-79
2022/06/24 11:23:33;;;;;;;3.53;1.30;;;23.10;1.00;;;;;;4973644;28;20058;-78
2022/06/24 11:26:03;;;;;;;2.35;1.20;;;23.10;1.00;;;;;;4975333;28;20446;-78
2022/06/24 11:28:29;;;;;;;2.97;1.10;;;22.80;1.00;;;;;;4974520;28;20105;-78
2022/06/24 11:31:12;;;;;;;1.58;1.10;;;22.80;1.00;;;;;;4976388;28;20113;-78
2022/06/24 11:33:37;;;;;;;2.28;1.20;;;22.60;1.00;;;;;;4974775;28;20027;-78
2022/06/24 11:36:03;;;;;;;1.58;0.90;;;23.10;1.00;;;;;;4974594;28;20027;-78
2022/06/24 11:38:28;;;;;;;1.65;1.10;;;23.40;1.00;;;;;;4974720;28;20042;-78
2022/06/24 11:40:54;;;;;;;1.90;1.30;;;23.80;1.00;;;;;;4974487;28;20045;-78
2022/06/24 11:43:20;;;;;;;3.05;1.17;;;23.30;1.00;;;;;;4974420;28;20035;-78
2022/06/24 11:45:47;;;;;;;1.33;1.10;;;23.40;1.00;;;;;;4975122;28;20042;-78
2022/06/24 11:48:24;;;;;;;3.08;1.33;;;23.30;1.00;;;;;;4974622;28;20033;-78
2022/06/24 11:50:51;;;;;;;4.03;1.10;;;23.30;1.00;;;;;;4974157;28;20118;-78
2022/06/24 11:53:23;;;;;;;2.33;1.10;;;23.20;1.00;;;;;;4974190;28;20118;-78
2022/06/24 11:55:52;;;;;;;2.75;1.23;;;23.20;1.00;;;;;;4974556;28;20469;-79
2022/06/24 11:58:19;;;;;;;1.65;1.13;;;23.60;1.00;;;;;;4974149;28;20448;-77
2022/06/24 12:00:46;;;;;;;2.88;1.10;;;24.20;1.00;;;;;;4974794;28;20066;-77
2022/06/24 12:03:14;;;;;;;2.45;1.00;;;25.00;1.00;;;;;;4974542;28;20065;-77
2022/06/24 12:05:43;;;;;;;1.10;0.90;;;24.90;1.00;;;;;;4973963;28;20090;-77
2022/06/24 12:08:09;;;;;;;1.73;1.10;;;24.30;1.00;;;;;;4974116;28;20114;-78
2022/06/24 12:10:35;;;;;;;2.03;1.20;;;24.10;1.00;;;;;;4974065;28;20022;-77
2022/06/24 12:13:08;;;;;;;1.10;1.00;;;24.10;1.00;;;;;;4974298;28;20081;-78
2022/06/24 12:15:36;;;;;;;2.78;1.00;;;23.90;1.00;;;;;;4973823;28;20033;-78
2022/06/24 12:18:12;;;;;;;2.80;1.08;;;23.50;1.00;;;;;;4974029;28;20174;-77
2022/06/24 12:20:37;;;;;;;1.73;0.82;;;23.60;1.00;;;;;;4973762;28;20126;-78
2022/06/24 12:23:17;;;;;;;4.20;1.27;;;23.70;1.00;;;;;;4973845;28;20034;-78
2022/06/24 12:25:47;;;;;;;1.85;1.08;;;24.50;1.00;;;;;;4959043;28;20078;-77
2022/06/24 12:28:24;;;;;;;2.25;0.80;;;24.70;1.00;;;;;;4973591;28;20051;-78
2022/06/24 12:31:05;;;;;;;1.63;1.00;;;24.80;1.00;;;;;;4972703;28;20039;-78
2022/06/24 12:33:34;;;;;;;2.13;0.70;;;24.90;1.00;;;;;;4973714;28;20443;-78
2022/06/24 12:36:09;;;;;;;2.72;0.90;;;25.10;1.00;;;;;;4973401;28;20045;-78
2022/06/24 12:38:37;;;;;;;3.10;0.80;;;25.40;1.00;;;;;;4973431;28;20044;-78
2022/06/24 12:41:14;;;;;;;1.17;0.82;;;25.70;1.00;;;;;;4973156;28;20031;-77
2022/06/24 12:43:59;;;;;;;1.33;0.70;;;25.80;1.00;;;;;;4958447;28;20035;-78
2022/06/24 12:46:28;;;;;;;2.67;1.00;;;25.90;1.00;;;;;;4971979;28;20039;-77
2022/06/24 12:51:56;;;;;;;1.77;1.02;;;25.30;1.00;;;;;;4973513;28;20077;-78
2022/06/24 12:54:22;;;;;;;0.95;0.75;;;25.20;1.00;;;;;;4973493;28;20058;-78
2022/06/24 12:56:48;;;;;;;1.98;0.85;;;25.30;1.00;;;;;;4972675;28;20022;-80
2022/06/24 12:59:13;;;;;;;1.95;0.82;;;26.00;1.00;;;;;;4973167;28;20031;-78
2022/06/24 13:01:44;;;;;;;1.30;0.90;;;26.40;1.00;;;;;;4973300;28;20034;-78
2022/06/24 13:04:14;;;;;;;0.70;0.63;;;26.70;1.00;;;;;;4970168;28;20023;-78
2022/06/24 13:06:40;;;;;;;1.85;1.00;;;28.00;1.00;;;;;;4973322;28;20030;-78
2022/06/24 13:09:07;;;;;;;1.55;0.60;;;28.60;1.00;;;;;;4973000;28;20027;-78
2022/06/24 13:11:34;;;;;;;2.25;0.70;;;29.30;1.00;;;;;;4972670;28;20491;-79
2022/06/24 13:14:01;;;;;;;3.13;0.80;;;30.50;1.00;;;;;;4973253;28;20023;-78